sensor_id;sensor_type;location;lat;lon;timestamp;pressure;altitude;pressure_sealevel;temperature;humidity
5500;BME280;2772;42.700;23.304;2023-04-30T00:01:59;94813.22;;;14.05;100.00
5500;BME280;2772;42.700;23.304;2023-04-30T00:04:26;94821.81;;;13.98;100.00
5500;BME280;2772;42.700;23.304;2023-04-30T00:06:52;94820.22;;;13.97;100.00
5500;BME280;2772;42.700;23.304;2023-04-30T00:09:19;94817.69;;;14.01;100.00
5500;BME280;2772;42.700;23.304;2023-04-30T00:11:46;94815.78;;;14.01;100.00
5500;BME280;2772;42.700;23.304;2023-04-30T00:14:13;94814.78;;;13.94;100.00
5500;BME280;2772;42.700;23.304;2023-04-30T00:16:41;94819.34;;;13.93;100.00
5500;BME280;2772;42.700;23.304;2023-04-30T00:19:08;94808.31;;;13.83;100.00
5500;BME280;2772;42.700;23.304;2023-04-30T00:21:35;94811.31;;;13.81;100.00
5500;BME280;2772;42.700;23.304;2023-04-30T00:24:02;94817.09;;;13.83;100.00
5500;BME280;2772;42.700;23.304;2023-04-30T00:26:28;94809.53;;;13.73;100.00
5500;BME280;2772;42.700;23.304;2023-04-30T00:28:55;94808.72;;;13.73;100.00
5500;BME280;2772;42.700;23.304;2023-04-30T00:31:22;94808.19;;;13.67;100.00
5500;BME280;2772;42.700;23.304;2023-04-30T00:33:50;94815.28;;;13.63;100.00
5500;BME280;2772;42.700;23.304;2023-04-30T00:36:17;94815.28;;;13.63;100.00
5500;BME280;2772;42.700;23.304;2023-04-30T00:38:44;94824.66;;;13.69;100.00
5500;BME280;2772;42.700;23.304;2023-04-30T00:41:10;94811.72;;;13.59;100.00
5500;BME280;2772;42.700;23.304;2023-04-30T00:43:37;94810.84;;;13.67;100.00
5500;BME280;2772;42.700;23.304;2023-04-30T00:46:04;94810.84;;;13.67;100.00
5500;BME280;2772;42.700;23.304;2023-04-30T00:48:31;94811.47;;;13.52;100.00
5500;BME280;2772;42.700;23.304;2023-04-30T00:51:00;94808.69;;;13.49;100.00
5500;BME280;2772;42.700;23.304;2023-04-30T00:53:28;94807.91;;;13.48;100.00
5500;BME280;2772;42.700;23.304;2023-04-30T00:55:55;94806.09;;;13.40;100.00
5500;BME280;2772;42.700;23.304;2023-04-30T00:58:22;94813.25;;;13.48;100.00
5500;BME280;2772;42.700;23.304;2023-04-30T01:00:49;94810.91;;;13.47;100.00
5500;BME280;2772;42.700;23.304;2023-04-30T01:03:16;94814.94;;;13.53;100.00
5500;BME280;2772;42.700;23.304;2023-04-30T01:05:43;94811.59;;;13.44;100.00
5500;BME280;2772;42.700;23.304;2023-04-30T01:08:11;94807.13;;;13.48;100.00
5500;BME280;2772;42.700;23.304;2023-04-30T01:10:40;94811.47;;;13.52;100.00
5500;BME280;2772;42.700;23.304;2023-04-30T01:13:16;94807.91;;;13.48;100.00
5500;BME280;2772;42.700;23.304;2023-04-30T01:15:54;94801.53;;;13.41;100.00
5500;BME280;2772;42.700;23.304;2023-04-30T01:18:26;94812.25;;;13.41;100.00
5500;BME280;2772;42.700;23.304;2023-04-30T01:20:58;94812.00;;;13.34;100.00
5500;BME280;2772;42.700;23.304;2023-04-30T01:23:41;94809.50;;;13.29;100.00
5500;BME280;2772;42.700;23.304;2023-04-30T01:26:14;94814.16;;;13.20;100.00
5500;BME280;2772;42.700;23.304;2023-04-30T01:28:49;94812.94;;;13.17;100.00
5500;BME280;2772;42.700;23.304;2023-04-30T01:31:17;94814.66;;;13.01;100.00
5500;BME280;2772;42.700;23.304;2023-04-30T01:33:45;94813.88;;;13.01;100.00
5500;BME280;2772;42.700;23.304;2023-04-30T01:36:31;94816.84;;;12.99;100.00
5500;BME280;2772;42.700;23.304;2023-04-30T01:39:18;94816.59;;;12.92;100.00
5500;BME280;2772;42.700;23.304;2023-04-30T01:41:51;94805.00;;;12.88;100.00
5500;BME280;2772;42.700;23.304;2023-04-30T01:44:42;94812.06;;;12.93;100.00
5500;BME280;2772;42.700;23.304;2023-04-30T01:47:17;94808.38;;;12.97;100.00
5500;BME280;2772;42.700;23.304;2023-04-30T01:49:53;94807.59;;;12.97;100.00
5500;BME280;2772;42.700;23.304;2023-04-30T01:52:30;94811.50;;;12.99;100.00
5500;BME280;2772;42.700;23.304;2023-04-30T01:55:00;94810.47;;;12.92;100.00
5500;BME280;2772;42.700;23.304;2023-04-30T01:57:32;94817.00;;;13.03;100.00
5500;BME280;2772;42.700;23.304;2023-04-30T02:00:05;94816.22;;;13.02;100.00
5500;BME280;2772;42.700;23.304;2023-04-30T02:02:35;94811.78;;;13.06;100.00
5500;BME280;2772;42.700;23.304;2023-04-30T02:05:01;94806.44;;;13.06;100.00
5500;BME280;2772;42.700;23.304;2023-04-30T02:07:36;94811.78;;;13.06;100.00
5500;BME280;2772;42.700;23.304;2023-04-30T02:10:06;94807.09;;;13.03;100.00
5500;BME280;2772;42.700;23.304;2023-04-30T02:12:32;94818.28;;;12.97;100.00
5500;BME280;2772;42.700;23.304;2023-04-30T02:14:59;94813.00;;;12.88;100.00
5500;BME280;2772;42.700;23.304;2023-04-30T02:17:27;94817.63;;;13.00;100.00
5500;BME280;2772;42.700;23.304;2023-04-30T02:19:54;94812.38;;;12.91;100.00
5500;BME280;2772;42.700;23.304;2023-04-30T02:22:21;94810.13;;;12.93;100.00
5500;BME280;2772;42.700;23.304;2023-04-30T02:24:47;94807.09;;;13.03;100.00
5500;BME280;2772;42.700;23.304;2023-04-30T02:27:14;94810.25;;;13.05;100.00
5500;BME280;2772;42.700;23.304;2023-04-30T02:29:41;94802.00;;;13.10;100.00
5500;BME280;2772;42.700;23.304;2023-04-30T02:32:07;94806.25;;;13.11;100.00
5500;BME280;2772;42.700;23.304;2023-04-30T02:34:35;94810.94;;;13.14;100.00
5500;BME280;2772;42.700;23.304;2023-04-30T02:37:02;94808.28;;;13.26;100.00
5500;BME280;2772;42.700;23.304;2023-04-30T02:39:29;94806.84;;;13.29;100.00
5500;BME280;2772;42.700;23.304;2023-04-30T02:41:56;94808.34;;;13.18;100.00
5500;BME280;2772;42.700;23.304;2023-04-30T02:44:22;94810.72;;;13.19;100.00
5500;BME280;2772;42.700;23.304;2023-04-30T02:46:49;94816.09;;;13.19;100.00
5500;BME280;2772;42.700;23.304;2023-04-30T02:49:16;94815.63;;;13.17;100.00
5500;BME280;2772;42.700;23.304;2023-04-30T02:51:44;94820.78;;;13.22;100.00
5500;BME280;2772;42.700;23.304;2023-04-30T02:54:10;94816.84;;;13.20;100.00
5500;BME280;2772;42.700;23.304;2023-04-30T02:56:37;94821.09;;;13.21;100.00
5500;BME280;2772;42.700;23.304;2023-04-30T02:59:04;94820.97;;;13.17;100.00
5500;BME280;2772;42.700;23.304;2023-04-30T03:01:31;94818.31;;;13.17;100.00
5500;BME280;2772;42.700;23.304;2023-04-30T03:03:58;94825.66;;;13.20;100.00
5500;BME280;2772;42.700;23.304;2023-04-30T03:06:24;94835.66;;;13.11;100.00
5500;BME280;2772;42.700;23.304;2023-04-30T03:08:52;94830.88;;;13.17;100.00
5500;BME280;2772;42.700;23.304;2023-04-30T03:11:19;94826.97;;;13.14;100.00
5500;BME280;2772;42.700;23.304;2023-04-30T03:13:47;94830.41;;;13.15;100.00
5500;BME280;2772;42.700;23.304;2023-04-30T03:16:15;94842.22;;;13.14;100.00
5500;BME280;2772;42.700;23.304;2023-04-30T03:18:42;94846.25;;;12.99;100.00
5500;BME280;2772;42.700;23.304;2023-04-30T03:21:09;94845.94;;;12.80;100.00
5500;BME280;2772;42.700;23.304;2023-04-30T03:23:36;94845.22;;;12.71;100.00
5500;BME280;2772;42.700;23.304;2023-04-30T03:26:04;94844.78;;;12.69;100.00
5500;BME280;2772;42.700;23.304;2023-04-30T03:28:31;94842.44;;;12.67;100.00
5500;BME280;2772;42.700;23.304;2023-04-30T03:30:58;94843.19;;;12.68;100.00
5500;BME280;2772;42.700;23.304;2023-04-30T03:33:25;94842.16;;;12.60;100.00
5500;BME280;2772;42.700;23.304;2023-04-30T03:35:51;94846.78;;;12.72;100.00
5500;BME280;2772;42.700;23.304;2023-04-30T03:38:18;94854.91;;;12.75;100.00
5500;BME280;2772;42.700;23.304;2023-04-30T03:40:45;94853.63;;;12.61;100.00
5500;BME280;2772;42.700;23.304;2023-04-30T03:43:13;94855.91;;;12.50;100.00
5500;BME280;2772;42.700;23.304;2023-04-30T03:45:40;94870.50;;;12.53;100.00
5500;BME280;2772;42.700;23.304;2023-04-30T03:48:06;94862.47;;;12.53;100.00
5500;BME280;2772;42.700;23.304;2023-04-30T03:50:34;94869.66;;;12.32;100.00
5500;BME280;2772;42.700;23.304;2023-04-30T03:53:00;94866.53;;;12.30;100.00
5500;BME280;2772;42.700;23.304;2023-04-30T03:55:27;94877.47;;;12.37;100.00
5500;BME280;2772;42.700;23.304;2023-04-30T03:57:54;94867.91;;;12.36;100.00
5500;BME280;2772;42.700;23.304;2023-04-30T04:00:22;94880.13;;;12.45;100.00
5500;BME280;2772;42.700;23.304;2023-04-30T04:02:49;94877.56;;;12.49;100.00
5500;BME280;2772;42.700;23.304;2023-04-30T04:05:15;94877.38;;;12.54;100.00
5500;BME280;2772;42.700;23.304;2023-04-30T04:07:42;94883.38;;;12.51;100.00
5500;BME280;2772;42.700;23.304;2023-04-30T04:10:09;94884.34;;;12.46;100.00
5500;BME280;2772;42.700;23.304;2023-04-30T04:12:36;94879.97;;;12.13;100.00
5500;BME280;2772;42.700;23.304;2023-04-30T04:15:03;94886.53;;;12.24;100.00
5500;BME280;2772;42.700;23.304;2023-04-30T04:17:31;94886.78;;;12.31;100.00
5500;BME280;2772;42.700;23.304;2023-04-30T04:19:58;94885.88;;;12.27;100.00
5500;BME280;2772;42.700;23.304;2023-04-30T04:22:25;94880.97;;;12.29;100.00
5500;BME280;2772;42.700;23.304;2023-04-30T04:24:51;94890.56;;;12.30;100.00
5500;BME280;2772;42.700;23.304;2023-04-30T04:27:18;94883.94;;;12.36;100.00
5500;BME280;2772;42.700;23.304;2023-04-30T04:29:46;94887.84;;;12.38;100.00
5500;BME280;2772;42.700;23.304;2023-04-30T04:32:13;94880.56;;;12.47;100.00
5500;BME280;2772;42.700;23.304;2023-04-30T04:34:41;94892.38;;;12.46;100.00
5500;BME280;2772;42.700;23.304;2023-04-30T04:37:08;94884.41;;;12.38;100.00
5500;BME280;2772;42.700;23.304;2023-04-30T04:39:35;94889.22;;;12.15;100.00
5500;BME280;2772;42.700;23.304;2023-04-30T04:42:02;94898.50;;;12.47;100.00
5500;BME280;2772;42.700;23.304;2023-04-30T04:44:29;94895.50;;;12.48;100.00
5500;BME280;2772;42.700;23.304;2023-04-30T04:46:56;94899.00;;;12.40;100.00
5500;BME280;2772;42.700;23.304;2023-04-30T04:49:23;94901.34;;;12.42;100.00
5500;BME280;2772;42.700;23.304;2023-04-30T04:51:51;94892.41;;;12.38;100.00
5500;BME280;2772;42.700;23.304;2023-04-30T04:54:18;94899.88;;;12.53;100.00
5500;BME280;2772;42.700;23.304;2023-04-30T04:56:45;94910.00;;;12.39;100.00
5500;BME280;2772;42.700;23.304;2023-04-30T04:59:12;94911.28;;;12.33;100.00
5500;BME280;2772;42.700;23.304;2023-04-30T05:01:39;94907.09;;;12.23;100.00
5500;BME280;2772;42.700;23.304;2023-04-30T05:04:06;94914.53;;;12.09;100.00
5500;BME280;2772;42.700;23.304;2023-04-30T05:06:34;94906.84;;;12.08;100.00
5500;BME280;2772;42.700;23.304;2023-04-30T05:09:02;94912.44;;;12.23;100.00
5500;BME280;2772;42.700;23.304;2023-04-30T05:11:31;94906.22;;;12.40;100.00
5500;BME280;2772;42.700;23.304;2023-04-30T05:13:57;94906.38;;;12.43;100.00
5500;BME280;2772;42.700;23.304;2023-04-30T05:16:24;94907.56;;;12.54;100.00
5500;BME280;2772;42.700;23.304;2023-04-30T05:18:51;94908.53;;;12.50;100.00
5500;BME280;2772;42.700;23.304;2023-04-30T05:21:18;94906.72;;;12.62;100.00
5500;BME280;2772;42.700;23.304;2023-04-30T05:23:46;94908.44;;;12.67;100.00
5500;BME280;2772;42.700;23.304;2023-04-30T05:26:14;94904.47;;;12.73;100.00
5500;BME280;2772;42.700;23.304;2023-04-30T05:28:40;94911.91;;;12.88;100.00
5500;BME280;2772;42.700;23.304;2023-04-30T05:31:07;94909.19;;;12.97;100.00
5500;BME280;2772;42.700;23.304;2023-04-30T05:33:34;94921.03;;;12.87;100.00
5500;BME280;2772;42.700;23.304;2023-04-30T05:36:01;94910.53;;;13.11;100.00
5500;BME280;2772;42.700;23.304;2023-04-30T05:38:28;94922.44;;;13.14;100.00
5500;BME280;2772;42.700;23.304;2023-04-30T05:40:54;94915.97;;;13.15;100.00
5500;BME280;2772;42.700;23.304;2023-04-30T05:43:22;94909.78;;;13.23;100.00
5500;BME280;2772;42.700;23.304;2023-04-30T05:45:49;94907.44;;;13.21;100.00
5500;BME280;2772;42.700;23.304;2023-04-30T05:48:16;94906.72;;;13.33;100.00
5500;BME280;2772;42.700;23.304;2023-04-30T05:50:42;94905.03;;;13.28;100.00
5500;BME280;2772;42.700;23.304;2023-04-30T05:53:09;94903.06;;;13.37;100.00
5500;BME280;2772;42.700;23.304;2023-04-30T05:55:36;94915.81;;;13.52;100.00
5500;BME280;2772;42.700;23.304;2023-04-30T05:58:02;94908.72;;;13.56;100.00
5500;BME280;2772;42.700;23.304;2023-04-30T06:00:30;94915.81;;;13.52;100.00
5500;BME280;2772;42.700;23.304;2023-04-30T06:02:57;94918.44;;;13.61;100.00
5500;BME280;2772;42.700;23.304;2023-04-30T06:05:24;94915.78;;;13.73;100.00
5500;BME280;2772;42.700;23.304;2023-04-30T06:07:50;94917.47;;;13.77;100.00
5500;BME280;2772;42.700;23.304;2023-04-30T06:10:17;94926.41;;;13.81;100.00
5500;BME280;2772;42.700;23.304;2023-04-30T06:12:44;94929.84;;;13.82;100.00
5500;BME280;2772;42.700;23.304;2023-04-30T06:15:10;94935.28;;;13.94;100.00
5500;BME280;2772;42.700;23.304;2023-04-30T06:17:38;94932.16;;;14.04;100.00
5500;BME280;2772;42.700;23.304;2023-04-30T06:20:06;94935.41;;;14.09;100.00
5500;BME280;2772;42.700;23.304;2023-04-30T06:22:33;94933.28;;;14.15;100.00
5500;BME280;2772;42.700;23.304;2023-04-30T06:25:00;94928.63;;;14.24;100.00
5500;BME280;2772;42.700;23.304;2023-04-30T06:27:27;94931.91;;;14.29;100.00
5500;BME280;2772;42.700;23.304;2023-04-30T06:29:56;94938.94;;;14.34;100.00
5500;BME280;2772;42.700;23.304;2023-04-30T06:32:25;94933.00;;;14.28;100.00
5500;BME280;2772;42.700;23.304;2023-04-30T06:34:53;94937.38;;;14.33;100.00
5500;BME280;2772;42.700;23.304;2023-04-30T06:37:20;94939.66;;;14.22;100.00
5500;BME280;2772;42.700;23.304;2023-04-30T06:39:48;94938.31;;;14.16;100.00
5500;BME280;2772;42.700;23.304;2023-04-30T06:42:16;94936.69;;;14.24;100.00
5500;BME280;2772;42.700;23.304;2023-04-30T06:44:42;94929.94;;;14.18;100.00
5500;BME280;2772;42.700;23.304;2023-04-30T06:47:10;94922.94;;;14.25;100.00
5500;BME280;2772;42.700;23.304;2023-04-30T06:49:36;94939.38;;;14.36;100.00
5500;BME280;2772;42.700;23.304;2023-04-30T06:52:04;94938.84;;;14.55;100.00
5500;BME280;2772;42.700;23.304;2023-04-30T06:54:31;94928.13;;;14.67;100.00
5500;BME280;2772;42.700;23.304;2023-04-30T06:56:58;94937.25;;;14.90;100.00
5500;BME280;2772;42.700;23.304;2023-04-30T06:59:26;94925.63;;;14.98;100.00
5500;BME280;2772;42.700;23.304;2023-04-30T07:01:52;94937.19;;;15.26;100.00
5500;BME280;2772;42.700;23.304;2023-04-30T07:04:19;94938.94;;;15.46;100.00
5500;BME280;2772;42.700;23.304;2023-04-30T07:06:48;94937.25;;;15.53;100.00
5500;BME280;2772;42.700;23.304;2023-04-30T07:09:17;94942.31;;;15.43;100.00
5500;BME280;2772;42.700;23.304;2023-04-30T07:11:43;94939.41;;;15.48;100.00
5500;BME280;2772;42.700;23.304;2023-04-30T07:14:10;94941.41;;;15.51;100.00
5500;BME280;2772;42.700;23.304;2023-04-30T07:16:37;94929.97;;;15.54;100.00
5500;BME280;2772;42.700;23.304;2023-04-30T07:19:05;94940.75;;;15.42;100.00
5500;BME280;2772;42.700;23.304;2023-04-30T07:21:31;94939.00;;;15.61;100.00
5500;BME280;2772;42.700;23.304;2023-04-30T07:23:58;94929.69;;;15.71;100.00
5500;BME280;2772;42.700;23.304;2023-04-30T07:26:26;94939.06;;;15.77;100.00
5500;BME280;2772;42.700;23.304;2023-04-30T07:28:53;94939.16;;;15.80;100.00
5500;BME280;2772;42.700;23.304;2023-04-30T07:31:19;94934.50;;;15.93;100.00
5500;BME280;2772;42.700;23.304;2023-04-30T07:33:46;94936.25;;;16.01;100.00
5500;BME280;2772;42.700;23.304;2023-04-30T07:36:14;94942.59;;;16.09;100.00
5500;BME280;2772;42.700;23.304;2023-04-30T07:38:41;94933.09;;;16.11;100.00
5500;BME280;2772;42.700;23.304;2023-04-30T07:41:08;94942.16;;;16.07;100.00
5500;BME280;2772;42.700;23.304;2023-04-30T07:43:36;94943.91;;;16.30;99.62
5500;BME280;2772;42.700;23.304;2023-04-30T07:46:03;94940.72;;;16.40;97.76
5500;BME280;2772;42.700;23.304;2023-04-30T07:48:29;94944.63;;;16.74;100.00
5500;BME280;2772;42.700;23.304;2023-04-30T07:50:56;94945.59;;;16.81;95.37
5500;BME280;2772;42.700;23.304;2023-04-30T07:53:23;94939.06;;;16.98;97.80
5500;BME280;2772;42.700;23.304;2023-04-30T07:55:50;94948.91;;;17.25;98.33
5500;BME280;2772;42.700;23.304;2023-04-30T07:58:17;94940.44;;;17.61;97.81
5500;BME280;2772;42.700;23.304;2023-04-30T08:00:45;94941.94;;;17.59;87.65
5500;BME280;2772;42.700;23.304;2023-04-30T08:03:12;94943.84;;;17.77;88.25
5500;BME280;2772;42.700;23.304;2023-04-30T08:05:38;94937.28;;;17.94;87.33
5500;BME280;2772;42.700;23.304;2023-04-30T08:08:06;94940.63;;;18.10;83.98
5500;BME280;2772;42.700;23.304;2023-04-30T08:10:33;94944.03;;;18.07;81.36
5500;BME280;2772;42.700;23.304;2023-04-30T08:13:02;94951.66;;;18.01;81.33
5500;BME280;2772;42.700;23.304;2023-04-30T08:15:29;94944.91;;;17.92;81.60
5500;BME280;2772;42.700;23.304;2023-04-30T08:17:57;94944.00;;;17.84;83.65
5500;BME280;2772;42.700;23.304;2023-04-30T08:20:24;94957.31;;;17.77;84.19
5500;BME280;2772;42.700;23.304;2023-04-30T08:22:52;94956.84;;;17.72;83.51
5500;BME280;2772;42.700;23.304;2023-04-30T08:25:18;94964.47;;;17.51;84.71
5500;BME280;2772;42.700;23.304;2023-04-30T08:27:45;94951.81;;;17.51;85.71
5500;BME280;2772;42.700;23.304;2023-04-30T08:30:12;94954.94;;;17.37;85.18
5500;BME280;2772;42.700;23.304;2023-04-30T08:32:38;94954.16;;;17.37;87.24
5500;BME280;2772;42.700;23.304;2023-04-30T08:35:08;94954.06;;;17.49;85.20
5500;BME280;2772;42.700;23.304;2023-04-30T08:37:35;94969.81;;;17.66;83.86
5500;BME280;2772;42.700;23.304;2023-04-30T08:40:01;94945.28;;;17.71;83.25
5500;BME280;2772;42.700;23.304;2023-04-30T08:42:31;94946.44;;;17.70;80.92
5500;BME280;2772;42.700;23.304;2023-04-30T08:45:02;94947.09;;;17.86;82.83
5500;BME280;2772;42.700;23.304;2023-04-30T08:47:30;94944.75;;;18.04;85.65
5500;BME280;2772;42.700;23.304;2023-04-30T08:49:56;94935.84;;;18.00;84.97
5500;BME280;2772;42.700;23.304;2023-04-30T08:52:25;94933.06;;;18.15;81.98
5500;BME280;2772;42.700;23.304;2023-04-30T08:54:54;94930.44;;;18.19;81.38
5500;BME280;2772;42.700;23.304;2023-04-30T08:57:22;94927.78;;;18.22;78.67
5500;BME280;2772;42.700;23.304;2023-04-30T08:59:49;94923.16;;;18.23;76.62
5500;BME280;2772;42.700;23.304;2023-04-30T09:02:16;94923.09;;;18.19;78.50
5500;BME280;2772;42.700;23.304;2023-04-30T09:04:43;94919.97;;;18.17;75.87
5500;BME280;2772;42.700;23.304;2023-04-30T09:07:12;94921.38;;;18.30;73.97
5500;BME280;2772;42.700;23.304;2023-04-30T09:09:40;94917.13;;;18.29;73.10
5500;BME280;2772;42.700;23.304;2023-04-30T09:12:11;94908.25;;;18.29;74.68
5500;BME280;2772;42.700;23.304;2023-04-30T09:14:39;94914.06;;;18.31;73.65
5500;BME280;2772;42.700;23.304;2023-04-30T09:17:06;94915.41;;;18.40;72.46
5500;BME280;2772;42.700;23.304;2023-04-30T09:19:34;94903.72;;;18.55;71.62
5500;BME280;2772;42.700;23.304;2023-04-30T09:22:18;94897.59;;;18.84;71.02
5500;BME280;2772;42.700;23.304;2023-04-30T09:24:48;94896.81;;;19.10;69.81
5500;BME280;2772;42.700;23.304;2023-04-30T09:27:16;94892.41;;;19.25;70.24
5500;BME280;2772;42.700;23.304;2023-04-30T09:29:43;94892.16;;;19.33;70.10
5500;BME280;2772;42.700;23.304;2023-04-30T09:32:10;94876.97;;;19.55;67.72
5500;BME280;2772;42.700;23.304;2023-04-30T09:34:37;94884.50;;;19.68;65.14
5500;BME280;2772;42.700;23.304;2023-04-30T09:37:04;94877.06;;;19.98;63.03
5500;BME280;2772;42.700;23.304;2023-04-30T09:39:32;94884.16;;;20.10;60.68
5500;BME280;2772;42.700;23.304;2023-04-30T09:42:09;94874.13;;;20.10;64.14
5500;BME280;2772;42.700;23.304;2023-04-30T09:44:37;94872.91;;;20.04;62.99
5500;BME280;2772;42.700;23.304;2023-04-30T09:47:09;94878.13;;;19.87;64.53
5500;BME280;2772;42.700;23.304;2023-04-30T09:49:37;94876.28;;;19.61;65.23
5500;BME280;2772;42.700;23.304;2023-04-30T09:52:04;94873.00;;;19.75;66.24
5500;BME280;2772;42.700;23.304;2023-04-30T09:54:31;94866.75;;;19.71;65.62
5500;BME280;2772;42.700;23.304;2023-04-30T09:57:01;94871.13;;;19.82;64.02
5500;BME280;2772;42.700;23.304;2023-04-30T09:59:30;94863.78;;;19.83;62.75
5500;BME280;2772;42.700;23.304;2023-04-30T10:01:59;94870.13;;;19.97;64.34
5500;BME280;2772;42.700;23.304;2023-04-30T10:04:28;94859.94;;;20.20;62.92
5500;BME280;2772;42.700;23.304;2023-04-30T10:06:57;94846.13;;;20.29;61.98
5500;BME280;2772;42.700;23.304;2023-04-30T10:09:35;94860.47;;;20.36;58.99
5500;BME280;2772;42.700;23.304;2023-04-30T10:12:07;94858.16;;;20.35;59.43
5500;BME280;2772;42.700;23.304;2023-04-30T10:14:38;94857.03;;;20.39;60.76
5500;BME280;2772;42.700;23.304;2023-04-30T10:17:12;94858.66;;;20.07;60.77
5500;BME280;2772;42.700;23.304;2023-04-30T10:19:42;94873.78;;;19.79;61.74
5500;BME280;2772;42.700;23.304;2023-04-30T10:22:11;94877.03;;;19.29;64.28
5500;BME280;2772;42.700;23.304;2023-04-30T10:24:38;94880.13;;;18.75;71.71
5500;BME280;2772;42.700;23.304;2023-04-30T10:27:05;94888.44;;;17.76;96.91
5500;BME280;2772;42.700;23.304;2023-04-30T10:29:32;94920.72;;;17.03;100.00
5500;BME280;2772;42.700;23.304;2023-04-30T10:32:00;94916.63;;;16.13;100.00
5500;BME280;2772;42.700;23.304;2023-04-30T10:34:37;94905.38;;;15.79;100.00
5500;BME280;2772;42.700;23.304;2023-04-30T10:37:12;94902.31;;;15.65;100.00
5500;BME280;2772;42.700;23.304;2023-04-30T10:39:43;94904.22;;;15.65;100.00
5500;BME280;2772;42.700;23.304;2023-04-30T10:42:10;94900.31;;;15.62;100.00
5500;BME280;2772;42.700;23.304;2023-04-30T10:44:38;94891.25;;;15.82;100.00
5500;BME280;2772;42.700;23.304;2023-04-30T10:47:06;94884.53;;;16.04;100.00
5500;BME280;2772;42.700;23.304;2023-04-30T10:49:33;94882.44;;;16.13;100.00
5500;BME280;2772;42.700;23.304;2023-04-30T10:52:02;94873.09;;;16.38;100.00
5500;BME280;2772;42.700;23.304;2023-04-30T10:54:30;94880.09;;;16.27;100.00
5500;BME280;2772;42.700;23.304;2023-04-30T10:57:11;94878.03;;;16.52;100.00
5500;BME280;2772;42.700;23.304;2023-04-30T10:59:41;94866.94;;;16.69;100.00
5500;BME280;2772;42.700;23.304;2023-04-30T11:02:14;94887.41;;;17.08;100.00
5500;BME280;2772;42.700;23.304;2023-04-30T11:05:10;94869.91;;;17.36;100.00
5500;BME280;2772;42.700;23.304;2023-04-30T11:07:45;94866.44;;;17.74;100.00
5500;BME280;2772;42.700;23.304;2023-04-30T11:10:14;94866.88;;;17.99;100.00
5500;BME280;2772;42.700;23.304;2023-04-30T11:12:46;94866.25;;;18.28;99.91
5500;BME280;2772;42.700;23.304;2023-04-30T11:15:16;94870.88;;;18.50;93.72
5500;BME280;2772;42.700;23.304;2023-04-30T11:17:47;94864.56;;;18.65;86.09
5500;BME280;2772;42.700;23.304;2023-04-30T11:20:18;94871.25;;;18.74;87.45
5500;BME280;2772;42.700;23.304;2023-04-30T11:22:45;94870.16;;;18.79;84.61
5500;BME280;2772;42.700;23.304;2023-04-30T11:25:12;94862.75;;;18.72;83.74
5500;BME280;2772;42.700;23.304;2023-04-30T11:27:41;94866.31;;;18.80;81.04
5500;BME280;2772;42.700;23.304;2023-04-30T11:30:10;94869.44;;;18.82;79.42
5500;BME280;2772;42.700;23.304;2023-04-30T11:32:39;94863.44;;;18.95;82.64
5500;BME280;2772;42.700;23.304;2023-04-30T11:35:08;94856.25;;;19.03;84.26
5500;BME280;2772;42.700;23.304;2023-04-30T11:37:37;94860.75;;;19.22;83.54
5500;BME280;2772;42.700;23.304;2023-04-30T11:40:06;94874.69;;;19.27;87.89
5500;BME280;2772;42.700;23.304;2023-04-30T11:42:35;94868.00;;;19.18;87.75
5500;BME280;2772;42.700;23.304;2023-04-30T11:45:05;94870.06;;;18.98;88.71
5500;BME280;2772;42.700;23.304;2023-04-30T11:47:40;94863.88;;;18.98;88.99
5500;BME280;2772;42.700;23.304;2023-04-30T11:50:10;94860.56;;;19.11;87.98
5500;BME280;2772;42.700;23.304;2023-04-30T11:52:37;94859.09;;;19.14;89.64
5500;BME280;2772;42.700;23.304;2023-04-30T11:55:06;94859.91;;;19.18;89.73
5500;BME280;2772;42.700;23.304;2023-04-30T11:57:38;94850.75;;;19.26;87.25
5500;BME280;2772;42.700;23.304;2023-04-30T12:00:10;94851.63;;;19.33;86.19
5500;BME280;2772;42.700;23.304;2023-04-30T12:02:37;94848.97;;;19.37;84.21
5500;BME280;2772;42.700;23.304;2023-04-30T12:05:12;94850.91;;;19.36;84.80
5500;BME280;2772;42.700;23.304;2023-04-30T12:07:43;94848.19;;;19.33;86.61
5500;BME280;2772;42.700;23.304;2023-04-30T12:10:11;94862.91;;;19.13;86.65
5500;BME280;2772;42.700;23.304;2023-04-30T12:12:38;94862.16;;;19.12;86.16
5500;BME280;2772;42.700;23.304;2023-04-30T12:15:10;94869.84;;;18.84;86.70
5500;BME280;2772;42.700;23.304;2023-04-30T12:17:37;94880.16;;;18.78;89.26
5500;BME280;2772;42.700;23.304;2023-04-30T12:20:05;94895.53;;;18.48;88.80
5500;BME280;2772;42.700;23.304;2023-04-30T12:22:33;94883.44;;;18.20;100.00
5500;BME280;2772;42.700;23.304;2023-04-30T12:25:05;94879.84;;;18.12;100.00
5500;BME280;2772;42.700;23.304;2023-04-30T12:27:32;94890.53;;;17.86;100.00
5500;BME280;2772;42.700;23.304;2023-04-30T12:30:03;94890.47;;;17.83;100.00
5500;BME280;2772;42.700;23.304;2023-04-30T12:32:37;94883.72;;;17.92;100.00
5500;BME280;2772;42.700;23.304;2023-04-30T12:35:05;94887.78;;;18.05;100.00
5500;BME280;2772;42.700;23.304;2023-04-30T12:37:34;94879.78;;;18.09;100.00
5500;BME280;2772;42.700;23.304;2023-04-30T12:40:01;94889.38;;;18.29;100.00
5500;BME280;2772;42.700;23.304;2023-04-30T12:42:31;94884.38;;;18.50;100.00
5500;BME280;2772;42.700;23.304;2023-04-30T12:44:59;94881.47;;;18.62;100.00
5500;BME280;2772;42.700;23.304;2023-04-30T12:47:26;94872.50;;;18.80;100.00
5500;BME280;2772;42.700;23.304;2023-04-30T12:49:54;94876.38;;;18.83;100.00
5500;BME280;2772;42.700;23.304;2023-04-30T12:52:23;94876.44;;;18.86;96.79
5500;BME280;2772;42.700;23.304;2023-04-30T12:54:52;94872.59;;;18.87;96.69
5500;BME280;2772;42.700;23.304;2023-04-30T12:57:20;94885.84;;;18.96;95.94
5500;BME280;2772;42.700;23.304;2023-04-30T12:59:57;94887.22;;;19.13;94.68
5500;BME280;2772;42.700;23.304;2023-04-30T13:02:26;94884.63;;;19.20;89.00
5500;BME280;2772;42.700;23.304;2023-04-30T13:04:53;94883.47;;;19.21;85.55
5500;BME280;2772;42.700;23.304;2023-04-30T13:07:21;94872.97;;;19.16;86.04
5500;BME280;2772;42.700;23.304;2023-04-30T13:09:48;94867.25;;;18.91;83.69